sensor_id;sensor_type;location;lat;lon;timestamp;pressure;altitude;pressure_sealevel;temperature;humidity
57847;BME280;43675;50.030;21.952;2022-10-30T00:00:46;99207.61;;;11.22;76.55
57847;BME280;43675;50.030;21.952;2022-10-30T00:03:15;99209.27;;;11.23;76.53
57847;BME280;43675;50.030;21.952;2022-10-30T00:05:42;99208.44;;;11.22;76.57
57847;BME280;43675;50.030;21.952;2022-10-30T00:08:12;99209.47;;;11.21;76.58
57847;BME280;43675;50.030;21.952;2022-10-30T00:10:39;99212.47;;;11.22;76.63
57847;BME280;43675;50.030;21.952;2022-10-30T00:13:05;99208.95;;;11.22;76.63
57847;BME280;43675;50.030;21.952;2022-10-30T00:15:31;99206.27;;;11.22;76.66
57847;BME280;43675;50.030;21.952;2022-10-30T00:17:57;99210.94;;;11.24;76.68
57847;BME280;43675;50.030;21.952;2022-10-30T00:20:23;99207.41;;;11.23;76.70
57847;BME280;43675;50.030;21.952;2022-10-30T00:22:48;99209.69;;;11.26;76.73
57847;BME280;43675;50.030;21.952;2022-10-30T00:25:14;99211.03;;;11.26;76.75
57847;BME280;43675;50.030;21.952;2022-10-30T00:27:40;99214.03;;;11.27;76.73
57847;BME280;43675;50.030;21.952;2022-10-30T00:30:12;99218.16;;;11.30;76.73
57847;BME280;43675;50.030;21.952;2022-10-30T00:32:37;99205.23;;;11.29;76.81
57847;BME280;43675;50.030;21.952;2022-10-30T00:35:04;99206.06;;;11.30;76.82
57847;BME280;43675;50.030;21.952;2022-10-30T00:37:36;99209.48;;;11.34;76.84
57847;BME280;43675;50.030;21.952;2022-10-30T00:40:02;99210.92;;;11.37;76.87
57847;BME280;43675;50.030;21.952;2022-10-30T00:42:29;99204.93;;;11.42;76.87
57847;BME280;43675;50.030;21.952;2022-10-30T00:45:02;99206.81;;;11.48;76.83
57847;BME280;43675;50.030;21.952;2022-10-30T00:47:43;99208.33;;;11.53;76.82
57847;BME280;43675;50.030;21.952;2022-10-30T00:50:15;99211.87;;;11.60;76.82
57847;BME280;43675;50.030;21.952;2022-10-30T00:52:46;99225.10;;;11.68;76.78
57847;BME280;43675;50.030;21.952;2022-10-30T00:55:14;99232.25;;;11.78;76.67
57847;BME280;43675;50.030;21.952;2022-10-30T00:57:40;99225.11;;;11.88;76.52
57847;BME280;43675;50.030;21.952;2022-10-30T01:00:08;99218.77;;;11.98;76.36
57847;BME280;43675;50.030;21.952;2022-10-30T01:02:35;99216.77;;;12.09;76.19
57847;BME280;43675;50.030;21.952;2022-10-30T01:05:02;99221.09;;;12.16;76.00
57847;BME280;43675;50.030;21.952;2022-10-30T01:07:28;99222.53;;;12.25;75.83
57847;BME280;43675;50.030;21.952;2022-10-30T01:10:00;99218.77;;;12.33;75.66
57847;BME280;43675;50.030;21.952;2022-10-30T01:12:26;99220.60;;;12.39;75.53
57847;BME280;43675;50.030;21.952;2022-10-30T01:14:54;99218.94;;;12.45;75.39
57847;BME280;43675;50.030;21.952;2022-10-30T01:25:53;99214.22;;;12.56;75.13
57847;BME280;43675;50.030;21.952;2022-10-30T01:28:23;99209.27;;;12.53;75.18
57847;BME280;43675;50.030;21.952;2022-10-30T01:36:29;99187.30;;;12.56;74.99
57847;BME280;43675;50.030;21.952;2022-10-30T01:39:10;99185.17;;;12.49;75.05
57847;BME280;43675;50.030;21.952;2022-10-30T01:41:34;99192.61;;;12.47;75.11
57847;BME280;43675;50.030;21.952;2022-10-30T01:44:08;99188.58;;;12.47;75.16
57847;BME280;43675;50.030;21.952;2022-10-30T01:49:31;99198.63;;;12.49;75.16
57847;BME280;43675;50.030;21.952;2022-10-30T01:52:17;99201.40;;;12.51;75.20
57847;BME280;43675;50.030;21.952;2022-10-30T01:54:46;99208.45;;;12.52;75.20
57847;BME280;43675;50.030;21.952;2022-10-30T02:02:26;99195.45;;;12.65;75.02
57847;BME280;43675;50.030;21.952;2022-10-30T02:04:52;99194.81;;;12.69;74.90
57847;BME280;43675;50.030;21.952;2022-10-30T02:07:17;99198.41;;;12.72;74.82
57847;BME280;43675;50.030;21.952;2022-10-30T02:09:44;99202.32;;;12.76;74.75
57847;BME280;43675;50.030;21.952;2022-10-30T02:12:10;99203.23;;;12.79;74.67
57847;BME280;43675;50.030;21.952;2022-10-30T02:17:29;99196.69;;;12.85;74.55
57847;BME280;43675;50.030;21.952;2022-10-30T02:20:03;99195.73;;;12.88;74.51
57847;BME280;43675;50.030;21.952;2022-10-30T02:22:29;99199.25;;;12.89;74.49
57847;BME280;43675;50.030;21.952;2022-10-30T02:24:55;99215.49;;;12.91;74.46
57847;BME280;43675;50.030;21.952;2022-10-30T02:27:27;99214.77;;;12.93;74.44
57847;BME280;43675;50.030;21.952;2022-10-30T02:29:53;99217.75;;;12.94;74.42
57847;BME280;43675;50.030;21.952;2022-10-30T02:32:19;99216.20;;;12.96;74.42
57847;BME280;43675;50.030;21.952;2022-10-30T02:34:44;99216.59;;;12.99;74.37
57847;BME280;43675;50.030;21.952;2022-10-30T02:37:10;99202.08;;;13.00;74.34
57847;BME280;43675;50.030;21.952;2022-10-30T02:39:43;99194.00;;;13.00;74.33
57847;BME280;43675;50.030;21.952;2022-10-30T02:42:08;99193.37;;;12.98;74.32
57847;BME280;43675;50.030;21.952;2022-10-30T02:44:34;99185.73;;;12.95;74.26
57847;BME280;43675;50.030;21.952;2022-10-30T02:47:00;99188.55;;;12.91;74.28
57847;BME280;43675;50.030;21.952;2022-10-30T02:49:25;99175.21;;;12.87;74.33
57847;BME280;43675;50.030;21.952;2022-10-30T02:51:51;99186.63;;;12.83;74.39
57847;BME280;43675;50.030;21.952;2022-10-30T02:54:17;99186.48;;;12.77;74.44
57847;BME280;43675;50.030;21.952;2022-10-30T02:56:42;99184.94;;;12.72;74.50
57847;BME280;43675;50.030;21.952;2022-10-30T02:59:08;99177.70;;;12.66;74.58
57847;BME280;43675;50.030;21.952;2022-10-30T03:01:34;99182.70;;;12.63;74.65
57847;BME280;43675;50.030;21.952;2022-10-30T03:03:59;99188.84;;;12.61;74.75
57847;BME280;43675;50.030;21.952;2022-10-30T03:06:25;99187.70;;;12.59;74.82
57847;BME280;43675;50.030;21.952;2022-10-30T03:08:51;99185.00;;;12.59;74.86
57847;BME280;43675;50.030;21.952;2022-10-30T03:11:18;99179.41;;;12.61;74.88
57847;BME280;43675;50.030;21.952;2022-10-30T03:13:45;99180.77;;;12.61;74.86
57847;BME280;43675;50.030;21.952;2022-10-30T03:16:21;99173.00;;;12.62;74.88
57847;BME280;43675;50.030;21.952;2022-10-30T03:18:51;99160.88;;;12.62;74.87
57847;BME280;43675;50.030;21.952;2022-10-30T03:21:20;99148.14;;;12.60;74.89
57847;BME280;43675;50.030;21.952;2022-10-30T03:23:46;99162.34;;;12.58;74.96
57847;BME280;43675;50.030;21.952;2022-10-30T03:26:12;99170.71;;;12.59;74.96
57847;BME280;43675;50.030;21.952;2022-10-30T03:28:38;99175.58;;;12.59;74.97
57847;BME280;43675;50.030;21.952;2022-10-30T03:31:06;99179.93;;;12.60;75.00
57847;BME280;43675;50.030;21.952;2022-10-30T03:33:33;99187.57;;;12.63;75.00
57847;BME280;43675;50.030;21.952;2022-10-30T03:36:00;99177.63;;;12.64;74.98
57847;BME280;43675;50.030;21.952;2022-10-30T03:38:33;99179.29;;;12.65;74.97
57847;BME280;43675;50.030;21.952;2022-10-30T03:40:58;99182.30;;;12.66;74.99
57847;BME280;43675;50.030;21.952;2022-10-30T03:43:25;99180.71;;;12.67;74.99
57847;BME280;43675;50.030;21.952;2022-10-30T03:45:58;99184.86;;;12.70;74.96
57847;BME280;43675;50.030;21.952;2022-10-30T03:48:30;99181.62;;;12.70;74.96
57847;BME280;43675;50.030;21.952;2022-10-30T03:50:58;99172.30;;;12.73;74.92
57847;BME280;43675;50.030;21.952;2022-10-30T03:53:25;99172.90;;;12.75;74.88
57847;BME280;43675;50.030;21.952;2022-10-30T03:55:52;99168.14;;;12.77;74.83
57847;BME280;43675;50.030;21.952;2022-10-30T03:58:19;99170.31;;;12.77;74.83
57847;BME280;43675;50.030;21.952;2022-10-30T04:00:45;99173.29;;;12.78;74.79
57847;BME280;43675;50.030;21.952;2022-10-30T04:03:10;99173.40;;;12.81;74.79
57847;BME280;43675;50.030;21.952;2022-10-30T04:05:38;99163.73;;;12.83;74.75
57847;BME280;43675;50.030;21.952;2022-10-30T04:08:08;99169.75;;;12.85;74.71
57847;BME280;43675;50.030;21.952;2022-10-30T04:10:33;99163.02;;;12.85;74.69
57847;BME280;43675;50.030;21.952;2022-10-30T04:13:05;99163.33;;;12.86;74.69
57847;BME280;43675;50.030;21.952;2022-10-30T04:15:27;99169.23;;;12.85;74.67
57847;BME280;43675;50.030;21.952;2022-10-30T04:17:53;99165.19;;;12.85;74.68
57847;BME280;43675;50.030;21.952;2022-10-30T04:20:20;99164.95;;;12.87;74.65
57847;BME280;43675;50.030;21.952;2022-10-30T04:22:46;99153.98;;;12.88;74.65
57847;BME280;43675;50.030;21.952;2022-10-30T04:25:12;99145.89;;;12.88;74.61
57847;BME280;43675;50.030;21.952;2022-10-30T04:27:40;99151.59;;;12.89;74.59
57847;BME280;43675;50.030;21.952;2022-10-30T04:30:08;99146.48;;;12.90;74.57
57847;BME280;43675;50.030;21.952;2022-10-30T04:32:34;99154.05;;;12.91;74.56
57847;BME280;43675;50.030;21.952;2022-10-30T04:34:59;99145.97;;;12.91;74.55
57847;BME280;43675;50.030;21.952;2022-10-30T04:37:25;99148.14;;;12.91;74.55
57847;BME280;43675;50.030;21.952;2022-10-30T04:39:51;99146.59;;;12.93;74.54
57847;BME280;43675;50.030;21.952;2022-10-30T04:42:16;99144.73;;;12.93;74.51
57847;BME280;43675;50.030;21.952;2022-10-30T04:44:42;99139.62;;;12.94;74.48
57847;BME280;43675;50.030;21.952;2022-10-30T04:47:14;99134.78;;;12.94;74.48
57847;BME280;43675;50.030;21.952;2022-10-30T04:49:47;99147.42;;;12.93;74.47
57847;BME280;43675;50.030;21.952;2022-10-30T04:52:13;99147.94;;;12.93;74.44
57847;BME280;43675;50.030;21.952;2022-10-30T04:54:38;99144.21;;;12.94;74.46
57847;BME280;43675;50.030;21.952;2022-10-30T04:57:04;99148.25;;;12.94;74.43
57847;BME280;43675;50.030;21.952;2022-10-30T04:59:29;99146.66;;;12.95;74.41
57847;BME280;43675;50.030;21.952;2022-10-30T05:01:55;99142.70;;;12.98;74.38
57847;BME280;43675;50.030;21.952;2022-10-30T05:04:21;99145.19;;;12.99;74.32
57847;BME280;43675;50.030;21.952;2022-10-30T05:06:46;99154.41;;;13.01;74.31
57847;BME280;43675;50.030;21.952;2022-10-30T05:09:12;99159.88;;;13.03;74.23
57847;BME280;43675;50.030;21.952;2022-10-30T05:11:38;99155.83;;;13.03;74.18
57847;BME280;43675;50.030;21.952;2022-10-30T05:14:03;99159.95;;;13.06;74.15
57847;BME280;43675;50.030;21.952;2022-10-30T05:16:29;99150.31;;;13.07;74.09
57847;BME280;43675;50.030;21.952;2022-10-30T05:19:01;99150.11;;;13.09;74.05
57847;BME280;43675;50.030;21.952;2022-10-30T05:21:27;99157.98;;;13.10;74.03
57847;BME280;43675;50.030;21.952;2022-10-30T05:23:53;99153.94;;;13.10;73.99
57847;BME280;43675;50.030;21.952;2022-10-30T05:26:18;99153.22;;;13.12;73.96
57847;BME280;43675;50.030;21.952;2022-10-30T05:28:44;99157.26;;;13.12;73.92
57847;BME280;43675;50.030;21.952;2022-10-30T05:31:09;99164.27;;;13.13;73.85
57847;BME280;43675;50.030;21.952;2022-10-30T05:33:35;99165.41;;;13.15;73.87
57847;BME280;43675;50.030;21.952;2022-10-30T05:36:01;99172.98;;;13.15;73.82
57847;BME280;43675;50.030;21.952;2022-10-30T05:38:26;99175.47;;;13.17;73.77
57847;BME280;43675;50.030;21.952;2022-10-30T05:40:52;99168.49;;;13.18;73.71
57847;BME280;43675;50.030;21.952;2022-10-30T05:43:24;99165.08;;;13.20;73.69
57847;BME280;43675;50.030;21.952;2022-10-30T05:45:49;99169.33;;;13.19;73.67
57847;BME280;43675;50.030;21.952;2022-10-30T05:48:15;99168.05;;;13.21;73.63
57847;BME280;43675;50.030;21.952;2022-10-30T05:50:48;99163.48;;;13.22;73.57
57847;BME280;43675;50.030;21.952;2022-10-30T05:53:13;99167.33;;;13.23;73.53
57847;BME280;43675;50.030;21.952;2022-10-30T05:55:39;99164.11;;;13.24;73.53
57847;BME280;43675;50.030;21.952;2022-10-30T05:58:05;99163.87;;;13.25;73.49
57847;BME280;43675;50.030;21.952;2022-10-30T06:00:34;99168.53;;;13.28;73.41
57847;BME280;43675;50.030;21.952;2022-10-30T06:03:05;99168.53;;;13.28;73.39
57847;BME280;43675;50.030;21.952;2022-10-30T06:05:33;99168.84;;;13.29;73.33
57847;BME280;43675;50.030;21.952;2022-10-30T06:08:00;99162.39;;;13.30;73.33
57847;BME280;43675;50.030;21.952;2022-10-30T06:10:27;99167.88;;;13.32;73.32
57847;BME280;43675;50.030;21.952;2022-10-30T06:12:54;99150.42;;;13.35;73.26
57847;BME280;43675;50.030;21.952;2022-10-30T06:15:21;99158.83;;;13.36;73.28
57847;BME280;43675;50.030;21.952;2022-10-30T06:17:48;99160.48;;;13.37;73.25
57847;BME280;43675;50.030;21.952;2022-10-30T06:20:16;99170.20;;;13.38;73.25
57847;BME280;43675;50.030;21.952;2022-10-30T06:22:41;99178.39;;;13.40;73.20
57847;BME280;43675;50.030;21.952;2022-10-30T06:25:07;99180.02;;;13.41;73.15
57847;BME280;43675;50.030;21.952;2022-10-30T06:27:34;99181.16;;;13.43;73.09
57847;BME280;43675;50.030;21.952;2022-10-30T06:29:59;99176.66;;;13.46;73.07
57847;BME280;43675;50.030;21.952;2022-10-30T06:32:25;99175.63;;;13.47;73.03
57847;BME280;43675;50.030;21.952;2022-10-30T06:34:51;99181.61;;;13.49;73.05
57847;BME280;43675;50.030;21.952;2022-10-30T06:37:23;99173.31;;;13.50;73.06
57847;BME280;43675;50.030;21.952;2022-10-30T06:39:48;99175.04;;;13.54;73.10
57847;BME280;43675;50.030;21.952;2022-10-30T06:42:22;99179.46;;;13.57;73.08
57847;BME280;43675;50.030;21.952;2022-10-30T06:44:48;99184.51;;;13.63;73.08
57847;BME280;43675;50.030;21.952;2022-10-30T06:47:14;99194.12;;;13.68;73.03
57847;BME280;43675;50.030;21.952;2022-10-30T06:49:40;99204.22;;;13.72;72.93
57847;BME280;43675;50.030;21.952;2022-10-30T06:52:12;99202.45;;;13.76;72.84
57847;BME280;43675;50.030;21.952;2022-10-30T06:54:37;99208.22;;;13.79;72.80
57847;BME280;43675;50.030;21.952;2022-10-30T06:57:05;99211.20;;;13.80;72.79
57847;BME280;43675;50.030;21.952;2022-10-30T06:59:30;99230.70;;;13.82;72.75
57847;BME280;43675;50.030;21.952;2022-10-30T07:01:56;99234.44;;;13.81;72.77
57847;BME280;43675;50.030;21.952;2022-10-30T07:04:21;99222.61;;;13.82;72.79
57847;BME280;43675;50.030;21.952;2022-10-30T07:06:47;99222.61;;;13.82;72.72
57847;BME280;43675;50.030;21.952;2022-10-30T07:09:13;99221.19;;;13.80;72.73
57847;BME280;43675;50.030;21.952;2022-10-30T07:11:38;99227.17;;;13.82;72.76
57847;BME280;43675;50.030;21.952;2022-10-30T07:14:04;99222.61;;;13.82;72.79
57847;BME280;43675;50.030;21.952;2022-10-30T07:16:36;99227.24;;;13.84;72.81
57847;BME280;43675;50.030;21.952;2022-10-30T07:19:02;99190.61;;;13.86;72.79
57847;BME280;43675;50.030;21.952;2022-10-30T07:21:28;99178.78;;;13.87;72.76
57847;BME280;43675;50.030;21.952;2022-10-30T07:23:53;99174.21;;;13.87;72.72
57847;BME280;43675;50.030;21.952;2022-10-30T07:26:19;99169.34;;;13.87;72.79
57847;BME280;43675;50.030;21.952;2022-10-30T07:28:44;99183.66;;;13.87;72.78
57847;BME280;43675;50.030;21.952;2022-10-30T07:31:10;99180.71;;;13.89;72.78
57847;BME280;43675;50.030;21.952;2022-10-30T07:33:36;99173.83;;;13.93;72.85
57847;BME280;43675;50.030;21.952;2022-10-30T07:36:02;99167.67;;;14.04;72.88
57847;BME280;43675;50.030;21.952;2022-10-30T07:38:28;99172.41;;;14.17;72.77
57847;BME280;43675;50.030;21.952;2022-10-30T07:40:53;99175.64;;;14.35;72.59
57847;BME280;43675;50.030;21.952;2022-10-30T07:43:19;99185.83;;;14.51;72.33
57847;BME280;43675;50.030;21.952;2022-10-30T07:45:51;99183.03;;;14.67;72.06
57847;BME280;43675;50.030;21.952;2022-10-30T07:48:17;99183.08;;;14.79;71.76
57847;BME280;43675;50.030;21.952;2022-10-30T07:50:43;99188.05;;;14.82;71.48
57847;BME280;43675;50.030;21.952;2022-10-30T07:53:15;99175.59;;;14.72;71.23
57847;BME280;43675;50.030;21.952;2022-10-30T07:55:41;99187.28;;;14.75;71.20
57847;BME280;43675;50.030;21.952;2022-10-30T07:58:07;99160.89;;;14.67;71.26
57847;BME280;43675;50.030;21.952;2022-10-30T08:00:33;99165.10;;;14.63;71.31
57847;BME280;43675;50.030;21.952;2022-10-30T08:02:58;99163.70;;;14.61;71.35
57847;BME280;43675;50.030;21.952;2022-10-30T08:05:24;99189.27;;;14.58;71.42
57847;BME280;43675;50.030;21.952;2022-10-30T08:07:50;99212.62;;;14.53;71.38
57847;BME280;43675;50.030;21.952;2022-10-30T08:10:16;99231.31;;;14.45;71.35
57847;BME280;43675;50.030;21.952;2022-10-30T08:12:42;99193.28;;;14.38;71.50
57847;BME280;43675;50.030;21.952;2022-10-30T08:15:09;99189.70;;;14.35;71.72
57847;BME280;43675;50.030;21.952;2022-10-30T08:17:43;99210.74;;;14.35;71.77
57847;BME280;43675;50.030;21.952;2022-10-30T08:20:11;99194.85;;;14.36;71.78
57847;BME280;43675;50.030;21.952;2022-10-30T08:22:53;99184.42;;;14.40;71.81
57847;BME280;43675;50.030;21.952;2022-10-30T08:25:20;99188.01;;;14.43;71.76
57847;BME280;43675;50.030;21.952;2022-10-30T08:28:01;99189.14;;;14.44;71.77
57847;BME280;43675;50.030;21.952;2022-10-30T08:30:30;99183.07;;;14.49;71.74
57847;BME280;43675;50.030;21.952;2022-10-30T08:32:58;99173.67;;;14.51;71.71
57847;BME280;43675;50.030;21.952;2022-10-30T08:35:24;99186.75;;;14.54;71.66
57847;BME280;43675;50.030;21.952;2022-10-30T08:37:55;99182.97;;;14.55;71.64
57847;BME280;43675;50.030;21.952;2022-10-30T08:40:29;99190.34;;;14.57;71.57
57847;BME280;43675;50.030;21.952;2022-10-30T08:42:56;99196.57;;;14.58;71.67
57847;BME280;43675;50.030;21.952;2022-10-30T08:45:23;99188.59;;;14.63;71.69
57847;BME280;43675;50.030;21.952;2022-10-30T08:47:57;99190.70;;;14.70;71.61
57847;BME280;43675;50.030;21.952;2022-10-30T08:50:23;99198.70;;;14.77;71.53
57847;BME280;43675;50.030;21.952;2022-10-30T08:52:48;99226.67;;;14.82;71.32
57847;BME280;43675;50.030;21.952;2022-10-30T08:55:20;99250.98;;;14.82;71.15
57847;BME280;43675;50.030;21.952;2022-10-30T08:57:46;99228.64;;;14.75;71.19
57847;BME280;43675;50.030;21.952;2022-10-30T09:00:12;99242.09;;;14.73;71.44
57847;BME280;43675;50.030;21.952;2022-10-30T09:02:38;99229.16;;;14.75;71.49
57847;BME280;43675;50.030;21.952;2022-10-30T09:05:05;99220.62;;;14.78;71.50
57847;BME280;43675;50.030;21.952;2022-10-30T09:07:31;99218.56;;;14.82;71.57
57847;BME280;43675;50.030;21.952;2022-10-30T09:09:57;99214.80;;;14.92;71.64
57847;BME280;43675;50.030;21.952;2022-10-30T09:12:22;99213.86;;;15.07;71.61
57847;BME280;43675;50.030;21.952;2022-10-30T09:14:48;99218.66;;;15.26;71.41
57847;BME280;43675;50.030;21.952;2022-10-30T09:17:13;99220.31;;;15.48;71.14
57847;BME280;43675;50.030;21.952;2022-10-30T09:19:40;99215.95;;;15.68;70.68
57847;BME280;43675;50.030;21.952;2022-10-30T09:22:06;99203.61;;;15.83;70.31
57847;BME280;43675;50.030;21.952;2022-10-30T09:24:32;99188.23;;;15.98;70.02
57847;BME280;43675;50.030;21.952;2022-10-30T09:26:58;99169.09;;;16.14;69.83
57847;BME280;43675;50.030;21.952;2022-10-30T09:29:23;99165.34;;;16.29;69.64
57847;BME280;43675;50.030;21.952;2022-10-30T09:31:49;99161.66;;;16.46;69.46
57847;BME280;43675;50.030;21.952;2022-10-30T09:34:22;99164.44;;;16.63;69.16
57847;BME280;43675;50.030;21.952;2022-10-30T09:36:47;99173.94;;;16.77;68.82
57847;BME280;43675;50.030;21.952;2022-10-30T09:39:14;99172.87;;;16.92;68.40
57847;BME280;43675;50.030;21.952;2022-10-30T09:45:03;99164.93;;;17.19;67.76
57847;BME280;43675;50.030;21.952;2022-10-30T09:48:02;99165.92;;;17.30;67.26
57847;BME280;43675;50.030;21.952;2022-10-30T09:50:36;99168.52;;;17.39;66.97
57847;BME280;43675;50.030;21.952;2022-10-30T09:53:32;99168.08;;;17.44;66.80
57847;BME280;43675;50.030;21.952;2022-10-30T09:56:07;99168.23;;;17.55;66.55
57847;BME280;43675;50.030;21.952;2022-10-30T09:59:04;99161.83;;;17.61;66.42
57847;BME280;43675;50.030;21.952;2022-10-30T10:01:32;99154.63;;;17.69;66.20
57847;BME280;43675;50.030;21.952;2022-10-30T10:06:32;99160.86;;;17.86;65.54
57847;BME280;43675;50.030;21.952;2022-10-30T10:09:02;99156.09;;;17.95;65.19
57847;BME280;43675;50.030;21.952;2022-10-30T10:11:31;99146.72;;;18.03;65.00
57847;BME280;43675;50.030;21.952;2022-10-30T10:14:10;99145.20;;;18.12;64.76
57847;BME280;43675;50.030;21.952;2022-10-30T10:16:44;99149.11;;;18.19;64.56
57847;BME280;43675;50.030;21.952;2022-10-30T10:19:20;99148.92;;;18.28;64.42
57847;BME280;43675;50.030;21.952;2022-10-30T10:21:55;99146.84;;;18.35;64.22
57847;BME280;43675;50.030;21.952;2022-10-30T10:24:24;99149.09;;;18.40;63.95
57847;BME280;43675;50.030;21.952;2022-10-30T10:32:40;99149.38;;;18.41;63.95
57847;BME280;43675;50.030;21.952;2022-10-30T10:35:34;99152.92;;;18.42;63.55
57847;BME280;43675;50.030;21.952;2022-10-30T10:38:01;99158.14;;;18.46;63.28
57847;BME280;43675;50.030;21.952;2022-10-30T10:49:07;99158.89;;;18.63;62.67
57847;BME280;43675;50.030;21.952;2022-10-30T10:51:36;99159.86;;;18.76;62.48
57847;BME280;43675;50.030;21.952;2022-10-30T10:54:18;99156.46;;;18.88;62.10
57847;BME280;43675;50.030;21.952;2022-10-30T10:56:52;99154.11;;;18.97;61.71
57847;BME280;43675;50.030;21.952;2022-10-30T10:59:22;99157.13;;;19.01;61.56
57847;BME280;43675;50.030;21.952;2022-10-30T11:01:57;99158.21;;;19.02;61.45
57847;BME280;43675;50.030;21.952;2022-10-30T11:04:44;99157.66;;;19.00;61.41
57847;BME280;43675;50.030;21.952;2022-10-30T11:07:22;99164.42;;;18.98;61.54
57847;BME280;43675;50.030;21.952;2022-10-30T11:09:53;99160.57;;;18.94;61.60
57847;BME280;43675;50.030;21.952;2022-10-30T11:12:23;99160.02;;;18.92;61.61
57847;BME280;43675;50.030;21.952;2022-10-30T11:14:49;99151.84;;;18.89;61.71
57847;BME280;43675;50.030;21.952;2022-10-30T11:19:48;99155.47;;;18.97;61.69
57847;BME280;43675;50.030;21.952;2022-10-30T11:22:28;99153.30;;;19.02;61.27
57847;BME280;43675;50.030;21.952;2022-10-30T11:24:54;99146.51;;;19.02;61.23
57847;BME280;43675;50.030;21.952;2022-10-30T11:27:25;99138.02;;;18.93;60.93
57847;BME280;43675;50.030;21.952;2022-10-30T11:30:00;99130.55;;;18.81;61.06
57847;BME280;43675;50.030;21.952;2022-10-30T11:32:33;99136.62;;;18.66;61.22
57847;BME280;43675;50.030;21.952;2022-10-30T11:35:11;99130.55;;;18.54;61.62
57847;BME280;43675;50.030;21.952;2022-10-30T11:37:40;99136.66;;;18.47;61.83
57847;BME280;43675;50.030;21.952;2022-10-30T11:42:44;99134.45;;;18.44;62.04
57847;BME280;43675;50.030;21.952;2022-10-30T11:47:53;99125.14;;;18.59;62.09
57847;BME280;43675;50.030;21.952;2022-10-30T11:50:22;99129.66;;;18.73;61.94
57847;BME280;43675;50.030;21.952;2022-10-30T11:52:53;99124.36;;;18.88;61.67
57847;BME280;43675;50.030;21.952;2022-10-30T11:55:40;99126.15;;;19.04;61.34
57847;BME280;43675;50.030;21.952;2022-10-30T11:58:29;99130.13;;;19.23;61.02
57847;BME280;43675;50.030;21.952;2022-10-30T12:03:40;99113.02;;;19.60;60.42
57847;BME280;43675;50.030;21.952;2022-10-30T12:09:12;99106.55;;;19.71;59.87
57847;BME280;43675;50.030;21.952;2022-10-30T12:11:36;99106.55;;;19.71;59.87
57847;BME280;43675;50.030;21.952;2022-10-30T12:14:03;99104.32;;;19.63;60.25
57847;BME280;43675;50.030;21.952;2022-10-30T12:16:35;99107.30;;;19.61;60.20
57847;BME280;43675;50.030;21.952;2022-10-30T12:19:06;99103.20;;;19.59;60.24
57847;BME280;43675;50.030;21.952;2022-10-30T12:21:35;99100.67;;;19.47;60.00
57847;BME280;43675;50.030;21.952;2022-10-30T12:24:03;99100.67;;;19.47;60.00
57847;BME280;43675;50.030;21.952;2022-10-30T12:26:29;99076.28;;;19.28;60.33
57847;BME280;43675;50.030;21.952;2022-10-30T12:29:01;99089.61;;;19.27;60.60
57847;BME280;43675;50.030;21.952;2022-10-30T12:31:39;99088.00;;;19.28;60.80
57847;BME280;43675;50.030;21.952;2022-10-30T12:34:16;99083.91;;;19.28;60.86
57847;BME280;43675;50.030;21.952;2022-10-30T12:36:44;99083.88;;;19.26;60.84
57847;BME280;43675;50.030;21.952;2022-10-30T12:39:26;99069.39;;;19.18;60.88
57847;BME280;43675;50.030;21.952;2022-10-30T12:42:01;99071.21;;;19.05;61.19
57847;BME280;43675;50.030;21.952;2022-10-30T12:44:42;99071.21;;;19.05;61.19
57847;BME280;43675;50.030;21.952;2022-10-30T12:50:25;99097.94;;;18.83;61.33
57847;BME280;43675;50.030;21.952;2022-10-30T12:52:36;99087.73;;;18.69;61.52
57847;BME280;43675;50.030;21.952;2022-10-30T12:55:21;99092.28;;;18.61;61.71
57847;BME280;43675;50.030;21.952;2022-10-30T12:58:00;99093.56;;;18.53;61.90
57847;BME280;43675;50.030;21.952;2022-10-30T13:00:32;99097.16;;;18.39;62.31
57847;BME280;43675;50.030;21.952;2022-10-30T13:03:05;99100.69;;;18.37;62.21
57847;BME280;43675;50.030;21.952;2022-10-30T13:05:39;99094.08;;;18.31;62.24
57847;BME280;43675;50.030;21.952;2022-10-30T13:10:47;99096.08;;;18.16;62.32
57847;BME280;43675;50.030;21.952;2022-10-30T13:13:19;99100.58;;;18.06;62.57
57847;BME280;43675;50.030;21.952;2022-10-30T13:15:50;99103.14;;;17.95;62.81
57847;BME280;43675;50.030;21.952;2022-10-30T13:18:20;99100.63;;;17.89;63.21
57847;BME280;43675;50.030;21.952;2022-10-30T13:21:03;99099.75;;;17.83;63.25
57847;BME280;43675;50.030;21.952;2022-10-30T13:26:23;99085.52;;;17.76;63.39
57847;BME280;43675;50.030;21.952;2022-10-30T13:34:00;99086.50;;;17.68;63.48
57847;BME280;43675;50.030;21.952;2022-10-30T13:36:47;99081.55;;;17.65;63.45
57847;BME280;43675;50.030;21.952;2022-10-30T13:39:29;99088.29;;;17.60;63.61
57847;BME280;43675;50.030;21.952;2022-10-30T13:42:13;99090.30;;;17.53;63.77
57847;BME280;43675;50.030;21.952;2022-10-30T13:47:49;99087.98;;;17.42;64.04
57847;BME280;43675;50.030;21.952;2022-10-30T13:50:31;99080.34;;;17.39;64.06
57847;BME280;43675;50.030;21.952;2022-10-30T13:52:57;99083.03;;;17.36;64.13
57847;BME280;43675;50.030;21.952;2022-10-30T13:55:26;99049.07;;;17.17;64.17
57847;BME280;43675;50.030;21.952;2022-10-30T13:58:07;99080.34;;;17.39;64.18
57847;BME280;43675;50.030;21.952;2022-10-30T14:03:44;99075.21;;;17.40;64.39
57847;BME280;43675;50.030;21.952;2022-10-30T14:11:29;99092.54;;;17.56;64.23
57847;BME280;43675;50.030;21.952;2022-10-30T14:14:03;99098.64;;;17.63;64.15
57847;BME280;43675;50.030;21.952;2022-10-30T14:16:37;99101.45;;;17.70;64.08
57847;BME280;43675;50.030;21.952;2022-10-30T14:19:08;99104.78;;;17.75;63.92
57847;BME280;43675;50.030;21.952;2022-10-30T14:24:30;99101.00;;;17.76;63.86
57847;BME280;43675;50.030;21.952;2022-10-30T14:34:41;99097.64;;;17.52;64.19